Time;durP1;ratioP1;P1;durP2;ratioP2;P2;SDS_P1;SDS_P2;PMS_P1;PMS_P2;Temp;Humidity;BMP_temperature;BMP_pressure;BME280_temperature;BME280_humidity;BME280_pressure;Samples;Min_cycle;Max_cycle;Signal;HPM_P1;HPM_P2
2022/06/02 00:00:20;;;;;;;;;;;;;;;;;;2098051;28;19920;-63
2022/06/02 00:01:21;;;;;;;;;;;;;;;;;;2097936;28;20045;-64
2022/06/02 00:02:22;;;;;;;;;;;;;;;;;;2098073;28;19928;-63
2022/06/02 00:03:23;;;;;;;;;;;;;;;;;;2097944;28;19920;-63
2022/06/02 00:04:24;;;;;;;;;;;;;;;;;;2098016;28;19927;-63
2022/06/02 00:05:25;;;;;;;;;;;;;;;;;;2098027;28;20011;-63
2022/06/02 00:06:26;;;;;;;;;;;;;;;;;;2097916;28;20384;-63
2022/06/02 00:07:30;;;;;;;;;;;;;;;;;;2097979;28;19981;-63
2022/06/02 00:08:31;;;;;;;;;;;;;;;;;;2098098;28;20015;-63
2022/06/02 00:09:31;;;;;;;;;;;;;;;;;;2097867;28;19982;-63
2022/06/02 00:10:32;;;;;;;;;;;;;;;;;;2097887;28;19927;-63
2022/06/02 00:11:33;;;;;;;;;;;;;;;;;;2099537;28;20049;-63
2022/06/02 00:12:34;;;;;;;;;;;;;;;;;;2106246;28;19969;-63
2022/06/02 00:13:35;;;;;;;;;;;;;;;;;;2106298;28;19951;-64
2022/06/02 00:14:36;;;;;;;;;;;;;;;;;;2106201;28;20028;-63
2022/06/02 00:15:37;;;;;;;;;;;;;;;;;;2106097;28;19999;-64
2022/06/02 00:16:38;;;;;;;;;;;;;;;;;;2106255;28;20026;-64
2022/06/02 00:17:38;;;;;;;;;;;;;;;;;;2106326;28;19920;-64
2022/06/02 00:18:40;;;;;;;;;;;;;;;;;;2103645;28;20390;-64
2022/06/02 00:19:41;;;;;;;;;;;;;;;;;;2098133;28;20369;-64
2022/06/02 00:20:42;;;;;;;;;;;;;;;;;;2097943;28;19920;-64
2022/06/02 00:21:43;;;;;;;;;;;;;;;;;;2097856;28;19920;-64
2022/06/02 00:22:44;;;;;;;;;;;;;;;;;;2097958;28;19958;-64
2022/06/02 00:23:45;;;;;;;;;;;;;;;;;;2097750;28;19927;-63
2022/06/02 00:24:46;;;;;;;;;;;;;;;;;;2097768;28;19960;-64
2022/06/02 00:25:46;;;;;;;;;;;;;;;;;;2097763;28;20258;-64
2022/06/02 00:26:47;;;;;;;;;;;;;;;;;;2097802;28;20054;-64
2022/06/02 00:27:48;;;;;;;;;;;;;;;;;;2097823;28;19974;-64
2022/06/02 00:28:49;;;;;;;;;;;;;;;;;;2097729;28;19966;-64
2022/06/02 00:29:50;;;;;;;;;;;;;;;;;;2097694;28;20412;-64
2022/06/02 00:30:51;;;;;;;;;;;;;;;;;;2097742;28;19920;-64
2022/06/02 00:31:52;;;;;;;;;;;;;;;;;;2097790;28;20014;-64
2022/06/02 00:32:53;;;;;;;;;;;;;;;;;;2097722;28;20003;-64
2022/06/02 00:33:54;;;;;;;;;;;;;;;;;;2097710;28;19927;-64
2022/06/02 00:34:55;;;;;;;;;;;;;;;;;;2097777;28;19921;-64
2022/06/02 00:35:56;;;;;;;;;;;;;;;;;;2097846;28;20475;-64
2022/06/02 00:36:57;;;;;;;;;;;;;;;;;;2097815;28;19959;-65
2022/06/02 00:37:57;;;;;;;;;;;;;;;;;;2097906;28;19959;-64
2022/06/02 00:38:59;;;;;;;;;;;;;;;;;;2097649;28;20376;-64
2022/06/02 00:39:59;;;;;;;;;;;;;;;;;;2097659;28;20254;-64
2022/06/02 00:41:00;;;;;;;;;;;;;;;;;;2097791;28;19927;-64
2022/06/02 00:42:01;;;;;;;;;;;;;;;;;;2097662;28;20331;-64
2022/06/02 00:43:02;;;;;;;;;;;;;;;;;;2097769;28;20011;-64
2022/06/02 00:44:03;;;;;;;;;;;;;;;;;;2097614;28;19966;-63
2022/06/02 00:45:04;;;;;;;;;;;;;;;;;;2097775;28;19920;-64
2022/06/02 00:46:05;;;;;;;;;;;;;;;;;;2097713;28;19940;-64
2022/06/02 00:47:06;;;;;;;;;;;;;;;;;;2103597;28;19927;-64
2022/06/02 00:48:06;;;;;;;;;;;;;;;;;;2105952;28;20532;-64
2022/06/02 00:49:07;;;;;;;;;;;;;;;;;;2104977;28;19967;-64
2022/06/02 00:50:08;;;;;;;;;;;;;;;;;;2105979;28;19931;-64
2022/06/02 00:51:09;;;;;;;;;;;;;;;;;;2106139;28;20003;-64
2022/06/02 00:52:10;;;;;;;;;;;;;;;;;;2105973;28;19924;-64
2022/06/02 00:53:11;;;;;;;;;;;;;;;;;;2106048;28;19927;-64
2022/06/02 00:58:06;;;;;;;;;;;;;;;;;;2108838;28;20007;-64
2022/06/02 00:59:07;;;;;;;;;;;;;;;;;;2108673;28;19947;-64
2022/06/02 01:00:07;;;;;;;;;;;;;;;;;;2108784;28;19930;-64
2022/06/02 01:01:08;;;;;;;;;;;;;;;;;;2108741;28;19924;-64
2022/06/02 01:02:09;;;;;;;;;;;;;;;;;;2108679;28;20388;-65
2022/06/02 01:03:10;;;;;;;;;;;;;;;;;;2108829;28;19920;-65
2022/06/02 01:04:11;;;;;;;;;;;;;;;;;;2108660;28;19952;-65
2022/06/02 01:05:12;;;;;;;;;;;;;;;;;;2108857;28;20284;-65
2022/06/02 01:06:13;;;;;;;;;;;;;;;;;;2108753;28;19955;-65
2022/06/02 01:07:14;;;;;;;;;;;;;;;;;;2108787;28;20010;-65
2022/06/02 01:08:15;;;;;;;;;;;;;;;;;;2108680;28;20030;-45
2022/06/02 01:09:15;;;;;;;;;;;;;;;;;;2108810;28;19920;-45
2022/06/02 01:10:16;;;;;;;;;;;;;;;;;;2108674;28;20482;-45
2022/06/02 01:11:17;;;;;;;;;;;;;;;;;;2108630;28;19920;-45
2022/06/02 01:12:18;;;;;;;;;;;;;;;;;;2108832;28;20380;-46
2022/06/02 01:13:19;;;;;;;;;;;;;;;;;;2108694;28;20388;-45
2022/06/02 01:14:20;;;;;;;;;;;;;;;;;;2108742;28;20057;-45
2022/06/02 01:15:20;;;;;;;;;;;;;;;;;;2108523;28;19985;-45
2022/06/02 01:16:21;;;;;;;;;;;;;;;;;;2108761;28;20026;-46
2022/06/02 01:17:22;;;;;;;;;;;;;;;;;;2108683;28;19920;-46
2022/06/02 01:18:23;;;;;;;;;;;;;;;;;;2108336;28;19920;-45
2022/06/02 01:19:24;;;;;;;;;;;;;;;;;;2100327;28;20011;-46
2022/06/02 01:20:25;;;;;;;;;;;;;;;;;;2100334;28;19947;-45
2022/06/02 01:21:26;;;;;;;;;;;;;;;;;;2100404;28;19950;-46
2022/06/02 01:22:27;;;;;;;;;;;;;;;;;;2100243;28;20110;-45
2022/06/02 01:23:28;;;;;;;;;;;;;;;;;;2100407;28;20411;-46
2022/06/02 01:24:29;;;;;;;;;;;;;;;;;;2100206;28;20014;-47
2022/06/02 01:25:29;;;;;;;;;;;;;;;;;;2100503;28;20298;-47
2022/06/02 01:26:30;;;;;;;;;;;;;;;;;;2100243;28;19921;-45
2022/06/02 01:27:31;;;;;;;;;;;;;;;;;;2100355;28;19920;-45
2022/06/02 01:28:32;;;;;;;;;;;;;;;;;;2100170;28;20361;-47
2022/06/02 01:29:33;;;;;;;;;;;;;;;;;;2100145;28;20058;-45
2022/06/02 01:30:34;;;;;;;;;;;;;;;;;;2100416;28;19965;-46
2022/06/02 01:31:34;;;;;;;;;;;;;;;;;;2100215;28;19924;-45
2022/06/02 01:32:35;;;;;;;;;;;;;;;;;;2100261;28;19927;-47
2022/06/02 01:33:36;;;;;;;;;;;;;;;;;;2100171;28;19924;-45
2022/06/02 01:34:37;;;;;;;;;;;;;;;;;;2100258;28;19920;-45
2022/06/02 01:35:38;;;;;;;;;;;;;;;;;;2100211;28;19931;-45
2022/06/02 01:36:39;;;;;;;;;;;;;;;;;;2100198;28;20003;-48
2022/06/02 01:37:40;;;;;;;;;;;;;;;;;;2100242;28;19943;-46
2022/06/02 01:38:41;;;;;;;;;;;;;;;;;;2100157;28;20420;-46
2022/06/02 01:39:41;;;;;;;;;;;;;;;;;;2100261;28;20021;-47
2022/06/02 01:40:42;;;;;;;;;;;;;;;;;;2100324;28;19920;-45
2022/06/02 01:41:43;;;;;;;;;;;;;;;;;;2100173;28;19928;-46
2022/06/02 01:42:44;;;;;;;;;;;;;;;;;;2100864;28;19927;-46
2022/06/02 01:43:45;;;;;;;;;;;;;;;;;;2108679;28;19920;-46
2022/06/02 01:44:46;;;;;;;;;;;;;;;;;;2108662;28;19989;-45
2022/06/02 01:45:46;;;;;;;;;;;;;;;;;;2108607;28;19920;-46
2022/06/02 01:46:48;;;;;;;;;;;;;;;;;;2108802;28;19920;-45
2022/06/02 01:47:49;;;;;;;;;;;;;;;;;;2108490;28;20303;-45
2022/06/02 01:48:50;;;;;;;;;;;;;;;;;;2108375;28;19924;-46
2022/06/02 01:49:51;;;;;;;;;;;;;;;;;;2108495;28;19924;-45
2022/06/02 01:50:51;;;;;;;;;;;;;;;;;;2108596;28;20362;-47
2022/06/02 01:51:52;;;;;;;;;;;;;;;;;;2108568;28;20010;-46
2022/06/02 01:52:54;;;;;;;;;;;;;;;;;;2108642;28;20007;-45
2022/06/02 01:53:55;;;;;;;;;;;;;;;;;;2108449;28;19959;-46
2022/06/02 01:54:55;;;;;;;;;;;;;;;;;;2108467;28;19959;-46
2022/06/02 01:55:56;;;;;;;;;;;;;;;;;;2108434;28;19920;-46
2022/06/02 01:56:57;;;;;;;;;;;;;;;;;;2108510;28;19963;-46
2022/06/02 01:57:58;;;;;;;;;;;;;;;;;;2108499;28;19955;-45
2022/06/02 01:58:59;;;;;;;;;;;;;;;;;;2108400;28;20356;-46
2022/06/02 02:00:00;;;;;;;;;;;;;;;;;;2108561;28;19920;-46
2022/06/02 02:01:01;;;;;;;;;;;;;;;;;;2108410;28;20015;-46
2022/06/02 02:02:01;;;;;;;;;;;;;;;;;;2108571;28;19937;-47
2022/06/02 02:03:02;;;;;;;;;;;;;;;;;;2108408;28;19927;-47
2022/06/02 02:04:03;;;;;;;;;;;;;;;;;;2108166;28;20010;-45
2022/06/02 02:05:04;;;;;;;;;;;;;;;;;;2108616;28;19927;-46
2022/06/02 02:06:06;;;;;;;;;;;;;;;;;;2108417;28;19935;-46
2022/06/02 02:07:06;;;;;;;;;;;;;;;;;;2107066;28;20015;-47
2022/06/02 02:08:07;;;;;;;;;;;;;;;;;;2106576;28;19919;-46
2022/06/02 02:09:08;;;;;;;;;;;;;;;;;;2107019;28;19967;-45
2022/06/02 02:10:09;;;;;;;;;;;;;;;;;;2107044;28;19931;-46
2022/06/02 02:11:14;;;;;;;;;;;;;;;;;;2107161;28;19963;-48
2022/06/02 02:12:15;;;;;;;;;;;;;;;;;;2107163;28;20041;-46
2022/06/02 02:13:16;;;;;;;;;;;;;;;;;;2107155;28;19923;-45
2022/06/02 02:14:17;;;;;;;;;;;;;;;;;;2107095;28;20345;-45
2022/06/02 02:15:17;;;;;;;;;;;;;;;;;;2107032;28;19971;-62
2022/06/02 02:16:18;;;;;;;;;;;;;;;;;;2106921;28;20005;-62
2022/06/02 02:17:19;;;;;;;;;;;;;;;;;;2107080;28;19920;-62
2022/06/02 02:18:20;;;;;;;;;;;;;;;;;;2107043;28;19926;-62
2022/06/02 02:19:21;;;;;;;;;;;;;;;;;;2098618;28;19928;-62
2022/06/02 02:20:22;;;;;;;;;;;;;;;;;;2098560;28;19974;-62
2022/06/02 02:21:22;;;;;;;;;;;;;;;;;;2090376;28;19921;-62
2022/06/02 02:22:23;;;;;;;;;;;;;;;;;;2090520;28;19928;-62
2022/06/02 02:23:24;;;;;;;;;;;;;;;;;;2098710;28;19920;-62
2022/06/02 02:24:25;;;;;;;;;;;;;;;;;;2098668;28;20413;-62
2022/06/02 02:25:26;;;;;;;;;;;;;;;;;;2098632;28;19974;-62
2022/06/02 02:26:27;;;;;;;;;;;;;;;;;;2098612;28;20310;-62
2022/06/02 02:27:27;;;;;;;;;;;;;;;;;;2098582;28;19927;-62
2022/06/02 02:28:28;;;;;;;;;;;;;;;;;;2098644;28;19947;-62
2022/06/02 02:29:29;;;;;;;;;;;;;;;;;;2098668;28;19920;-62
2022/06/02 02:30:30;;;;;;;;;;;;;;;;;;2098838;28;20010;-62
2022/06/02 02:31:31;;;;;;;;;;;;;;;;;;2098471;28;20013;-62
2022/06/02 02:32:32;;;;;;;;;;;;;;;;;;2098686;28;19920;-62
2022/06/02 02:33:33;;;;;;;;;;;;;;;;;;2098627;28;20616;-62
2022/06/02 02:34:34;;;;;;;;;;;;;;;;;;2098413;28;20179;-62
2022/06/02 02:35:35;;;;;;;;;;;;;;;;;;2098579;28;19921;-62
2022/06/02 02:36:36;;;;;;;;;;;;;;;;;;2098509;28;19926;-62
2022/06/02 02:37:36;;;;;;;;;;;;;;;;;;2098491;28;19920;-62
2022/06/02 02:38:38;;;;;;;;;;;;;;;;;;2098543;28;20436;-62
2022/06/02 02:39:38;;;;;;;;;;;;;;;;;;2104910;28;20032;-62
2022/06/02 02:40:39;;;;;;;;;;;;;;;;;;2106808;28;20100;-62
2022/06/02 02:41:40;;;;;;;;;;;;;;;;;;2106946;28;20096;-62
2022/06/02 02:42:41;;;;;;;;;;;;;;;;;;2106762;28;19943;-62
2022/06/02 02:43:42;;;;;;;;;;;;;;;;;;2106787;28;20014;-62
2022/06/02 02:44:43;;;;;;;;;;;;;;;;;;2106911;28;19920;-62
2022/06/02 02:45:46;;;;;;;;;;;;;;;;;;2106752;28;20370;-62
2022/06/02 02:46:47;;;;;;;;;;;;;;;;;;2106940;28;19926;-62
2022/06/02 02:47:48;;;;;;;;;;;;;;;;;;2106816;28;19924;-62
2022/06/02 02:48:49;;;;;;;;;;;;;;;;;;2106832;28;19962;-62
2022/06/02 02:49:50;;;;;;;;;;;;;;;;;;2106851;28;19946;-62
2022/06/02 02:50:51;;;;;;;;;;;;;;;;;;2106761;28;19966;-61
2022/06/02 02:51:52;;;;;;;;;;;;;;;;;;2106781;28;20006;-61
2022/06/02 02:52:53;;;;;;;;;;;;;;;;;;2106900;28;19920;-61
2022/06/02 02:53:54;;;;;;;;;;;;;;;;;;2106712;28;20490;-61
2022/06/02 02:54:55;;;;;;;;;;;;;;;;;;2106877;28;20046;-61
2022/06/02 02:55:55;;;;;;;;;;;;;;;;;;2106654;28;19920;-61
2022/06/02 02:56:56;;;;;;;;;;;;;;;;;;2106705;28;19955;-61
2022/06/02 02:57:57;;;;;;;;;;;;;;;;;;2106894;28;19920;-61
2022/06/02 02:58:58;;;;;;;;;;;;;;;;;;2106736;28;20376;-61
2022/06/02 02:59:59;;;;;;;;;;;;;;;;;;2106723;28;19924;-61
2022/06/02 03:01:00;;;;;;;;;;;;;;;;;;2106464;28;19920;-61
2022/06/02 03:02:01;;;;;;;;;;;;;;;;;;2106820;28;19927;-61
2022/06/02 03:03:02;;;;;;;;;;;;;;;;;;2106961;28;19920;-61
2022/06/02 03:04:02;;;;;;;;;;;;;;;;;;2106736;28;19924;-61
2022/06/02 03:05:03;;;;;;;;;;;;;;;;;;2106672;28;19963;-61
2022/06/02 03:06:04;;;;;;;;;;;;;;;;;;2106831;28;19959;-50
2022/06/02 03:07:05;;;;;;;;;;;;;;;;;;2106660;28;19920;-45
2022/06/02 03:08:06;;;;;;;;;;;;;;;;;;2106707;28;20237;-46
2022/06/02 03:09:08;;;;;;;;;;;;;;;;;;2106765;28;20369;-46
2022/06/02 03:10:08;;;;;;;;;;;;;;;;;;2106733;28;20239;-45
2022/06/02 03:11:09;;;;;;;;;;;;;;;;;;2106677;28;19948;-46
2022/06/02 03:12:10;;;;;;;;;;;;;;;;;;2106764;28;19920;-46
2022/06/02 03:13:11;;;;;;;;;;;;;;;;;;2106741;28;20373;-46
2022/06/02 03:14:12;;;;;;;;;;;;;;;;;;2106613;28;20011;-46
2022/06/02 03:15:13;;;;;;;;;;;;;;;;;;2106623;28;19920;-48
2022/06/02 03:16:13;;;;;;;;;;;;;;;;;;2106847;28;19920;-61
2022/06/02 03:17:14;;;;;;;;;;;;;;;;;;2106615;28;20006;-61
2022/06/02 03:18:15;;;;;;;;;;;;;;;;;;2106704;28;20361;-61
2022/06/02 03:19:16;;;;;;;;;;;;;;;;;;2098603;28;19961;-61
2022/06/02 03:20:17;;;;;;;;;;;;;;;;;;2098343;28;20392;-61
2022/06/02 03:21:18;;;;;;;;;;;;;;;;;;2098243;28;19927;-61
2022/06/02 03:22:19;;;;;;;;;;;;;;;;;;2098439;28;19924;-61
2022/06/02 03:23:20;;;;;;;;;;;;;;;;;;2098318;28;19955;-61
2022/06/02 03:24:20;;;;;;;;;;;;;;;;;;2098119;28;19943;-61
2022/06/02 03:25:21;;;;;;;;;;;;;;;;;;2098225;28;19920;-61
2022/06/02 03:26:22;;;;;;;;;;;;;;;;;;2098384;28;19920;-62
2022/06/02 03:27:23;;;;;;;;;;;;;;;;;;2098189;28;20341;-62
2022/06/02 03:28:24;;;;;;;;;;;;;;;;;;2098134;28;19920;-62
2022/06/02 03:29:25;;;;;;;;;;;;;;;;;;2098228;28;19920;-63
2022/06/02 03:30:25;;;;;;;;;;;;;;;;;;2098430;28;20002;-62
2022/06/02 03:31:27;;;;;;;;;;;;;;;;;;2098254;28;20331;-63
2022/06/02 03:32:28;;;;;;;;;;;;;;;;;;2098109;28;20274;-63
2022/06/02 03:33:29;;;;;;;;;;;;;;;;;;2098369;28;20008;-63
2022/06/02 03:34:30;;;;;;;;;;;;;;;;;;2098063;28;20448;-63
2022/06/02 03:35:31;;;;;;;;;;;;;;;;;;2101287;28;19981;-63
2022/06/02 03:36:32;;;;;;;;;;;;;;;;;;2106269;28;19927;-63
2022/06/02 03:37:33;;;;;;;;;;;;;;;;;;2105652;28;20062;-63
2022/06/02 03:38:34;;;;;;;;;;;;;;;;;;2105819;28;20400;-63
2022/06/02 03:39:35;;;;;;;;;;;;;;;;;;2105591;28;20539;-63
2022/06/02 03:40:36;;;;;;;;;;;;;;;;;;2106538;28;19945;-63
2022/06/02 03:41:36;;;;;;;;;;;;;;;;;;2106501;28;19924;-63
2022/06/02 03:42:37;;;;;;;;;;;;;;;;;;2106445;28;19920;-63
2022/06/02 03:43:38;;;;;;;;;;;;;;;;;;2106309;28;20070;-63
2022/06/02 03:44:40;;;;;;;;;;;;;;;;;;2098174;28;19965;-63
2022/06/02 03:45:41;;;;;;;;;;;;;;;;;;2098256;28;20003;-63
2022/06/02 03:46:42;;;;;;;;;;;;;;;;;;2106430;28;20433;-63
2022/06/02 03:47:43;;;;;;;;;;;;;;;;;;2106538;28;19927;-62
2022/06/02 03:48:44;;;;;;;;;;;;;;;;;;2106237;28;20352;-62
2022/06/02 03:49:45;;;;;;;;;;;;;;;;;;2106517;28;20026;-62
2022/06/02 03:50:46;;;;;;;;;;;;;;;;;;2106319;28;19966;-62
2022/06/02 03:51:47;;;;;;;;;;;;;;;;;;2106432;28;19927;-63
2022/06/02 03:52:48;;;;;;;;;;;;;;;;;;2106301;28;20389;-63
2022/06/02 03:53:48;;;;;;;;;;;;;;;;;;2106262;28;19931;-62
2022/06/02 03:54:49;;;;;;;;;;;;;;;;;;2106317;28;20398;-62
2022/06/02 03:55:51;;;;;;;;;;;;;;;;;;2106385;28;19924;-62
2022/06/02 03:56:52;;;;;;;;;;;;;;;;;;2106175;28;20226;-62
2022/06/02 03:57:53;;;;;;;;;;;;;;;;;;2106265;28;19962;-62
2022/06/02 03:58:54;;;;;;;;;;;;;;;;;;2106520;28;19919;-62
2022/06/02 03:59:55;;;;;;;;;;;;;;;;;;2106461;28;20284;-62
2022/06/02 04:00:56;;;;;;;;;;;;;;;;;;2106406;28;19920;-62
2022/06/02 04:01:57;;;;;;;;;;;;;;;;;;2106356;28;19924;-62
2022/06/02 04:02:58;;;;;;;;;;;;;;;;;;2106438;28;19982;-62
2022/06/02 04:03:59;;;;;;;;;;;;;;;;;;2106206;28;19928;-61
2022/06/02 04:05:00;;;;;;;;;;;;;;;;;;2106255;28;20261;-62
2022/06/02 04:06:01;;;;;;;;;;;;;;;;;;2106302;28;20364;-62
2022/06/02 04:07:02;;;;;;;;;;;;;;;;;;2106367;28;19927;-62
2022/06/02 04:08:03;;;;;;;;;;;;;;;;;;2106296;28;19920;-62
2022/06/02 04:09:04;;;;;;;;;;;;;;;;;;2106149;28;20018;-62
2022/06/02 04:10:04;;;;;;;;;;;;;;;;;;2106478;28;20019;-62
2022/06/02 04:11:05;;;;;;;;;;;;;;;;;;2106496;28;20281;-62
2022/06/02 04:13:38;;;;;;;;;;;;;;;;;;2106183;28;20011;-49
2022/06/02 04:14:38;;;;;;;;;;;;;;;;;;2106240;28;19967;-46
2022/06/02 04:15:39;;;;;;;;;;;;;;;;;;2106539;28;19920;-46
2022/06/02 04:16:40;;;;;;;;;;;;;;;;;;2106200;28;19920;-47
2022/06/02 04:17:41;;;;;;;;;;;;;;;;;;2106140;28;19923;-46
2022/06/02 04:18:42;;;;;;;;;;;;;;;;;;2106087;28;19935;-45
2022/06/02 04:21:02;;;;;;;;;;;;;;;;;;2106404;28;20376;-62
2022/06/02 04:22:03;;;;;;;;;;;;;;;;;;2106176;28;19920;-62
2022/06/02 04:23:04;;;;;;;;;;;;;;;;;;2106491;28;20007;-61
2022/06/02 04:24:05;;;;;;;;;;;;;;;;;;2106280;28;19920;-61
2022/06/02 04:25:07;;;;;;;;;;;;;;;;;;2106493;28;19962;-62
2022/06/02 04:26:07;;;;;;;;;;;;;;;;;;2106311;28;20006;-62
2022/06/02 04:27:08;;;;;;;;;;;;;;;;;;2106111;28;20019;-62
2022/06/02 04:28:09;;;;;;;;;;;;;;;;;;2106150;28;20324;-62
2022/06/02 04:29:10;;;;;;;;;;;;;;;;;;2106039;28;19967;-62
2022/06/02 04:30:11;;;;;;;;;;;;;;;;;;2105784;28;20014;-62
2022/06/02 04:31:12;;;;;;;;;;;;;;;;;;2106035;28;20376;-62
2022/06/02 04:32:13;;;;;;;;;;;;;;;;;;2106057;28;20034;-62
2022/06/02 04:33:14;;;;;;;;;;;;;;;;;;2106113;28;20037;-62
2022/06/02 04:34:14;;;;;;;;;;;;;;;;;;2106079;28;19926;-61
2022/06/02 04:35:15;;;;;;;;;;;;;;;;;;2106229;28;19927;-62
2022/06/02 04:36:16;;;;;;;;;;;;;;;;;;2106172;28;20002;-61
2022/06/02 04:37:17;;;;;;;;;;;;;;;;;;2106083;28;20351;-62
2022/06/02 04:38:18;;;;;;;;;;;;;;;;;;2106096;28;20387;-62
2022/06/02 04:39:19;;;;;;;;;;;;;;;;;;2106040;28;20019;-61
2022/06/02 04:40:20;;;;;;;;;;;;;;;;;;2106044;28;19982;-61
2022/06/02 04:41:21;;;;;;;;;;;;;;;;;;2106072;28;19969;-62
2022/06/02 04:42:21;;;;;;;;;;;;;;;;;;2106137;28;19927;-62
2022/06/02 04:43:22;;;;;;;;;;;;;;;;;;2106040;28;19920;-61
2022/06/02 04:44:23;;;;;;;;;;;;;;;;;;2106107;28;19927;-61
2022/06/02 04:45:24;;;;;;;;;;;;;;;;;;2106106;28;20495;-62
2022/06/02 04:46:25;;;;;;;;;;;;;;;;;;2106057;28;20014;-62
2022/06/02 04:47:26;;;;;;;;;;;;;;;;;;2106202;28;19959;-62
2022/06/02 04:48:27;;;;;;;;;;;;;;;;;;2106059;28;19920;-62
2022/06/02 04:49:28;;;;;;;;;;;;;;;;;;2105968;28;19931;-62
2022/06/02 04:50:29;;;;;;;;;;;;;;;;;;2106175;28;19924;-62
2022/06/02 04:51:30;;;;;;;;;;;;;;;;;;2106128;28;20010;-61
2022/06/02 04:52:31;;;;;;;;;;;;;;;;;;2106155;28;19920;-62
2022/06/02 04:53:32;;;;;;;;;;;;;;;;;;2105806;28;19927;-62
2022/06/02 04:54:33;;;;;;;;;;;;;;;;;;2106071;28;19981;-62
2022/06/02 04:55:35;;;;;;;;;;;;;;;;;;2106226;28;19920;-47
2022/06/02 04:56:36;;;;;;;;;;;;;;;;;;2106160;28;19967;-49
2022/06/02 04:57:38;;;;;;;;;;;;;;;;;;2106024;28;19974;-49
2022/06/02 04:58:39;;;;;;;;;;;;;;;;;;2105874;28;20075;-48
2022/06/02 04:59:40;;;;;;;;;;;;;;;;;;2106122;28;19942;-46
2022/06/02 05:00:40;;;;;;;;;;;;;;;;;;2106089;28;20006;-46
2022/06/02 05:01:41;;;;;;;;;;;;;;;;;;2105929;28;19920;-46
2022/06/02 05:02:43;;;;;;;;;;;;;;;;;;2105980;28;20014;-48
2022/06/02 05:03:44;;;;;;;;;;;;;;;;;;2106076;28;19926;-49
2022/06/02 05:04:44;;;;;;;;;;;;;;;;;;2106021;28;19920;-46
2022/06/02 05:05:45;;;;;;;;;;;;;;;;;;2105968;28;19999;-47
2022/06/02 05:06:46;;;;;;;;;;;;;;;;;;2106044;28;20007;-45
2022/06/02 05:07:47;;;;;;;;;;;;;;;;;;2106135;28;19958;-46
2022/06/02 05:08:48;;;;;;;;;;;;;;;;;;2105991;28;20001;-47
2022/06/02 05:09:49;;;;;;;;;;;;;;;;;;2105888;28;19924;-47
2022/06/02 05:10:50;;;;;;;;;;;;;;;;;;2105781;28;20030;-46
2022/06/02 05:11:51;;;;;;;;;;;;;;;;;;2105903;28;20006;-46
2022/06/02 05:12:51;;;;;;;;;;;;;;;;;;2105875;28;20270;-46
2022/06/02 05:13:52;;;;;;;;;;;;;;;;;;2106038;28;19928;-46
2022/06/02 05:14:53;;;;;;;;;;;;;;;;;;2105908;28;20376;-46
2022/06/02 05:15:54;;;;;;;;;;;;;;;;;;2105929;28;20006;-47
2022/06/02 05:16:55;;;;;;;;;;;;;;;;;;2105904;28;19927;-47
2022/06/02 05:17:56;;;;;;;;;;;;;;;;;;2105975;28;19920;-48
2022/06/02 05:18:57;;;;;;;;;;;;;;;;;;2101146;28;20301;-49
2022/06/02 05:19:57;;;;;;;;;;;;;;;;;;2097700;28;19970;-50
2022/06/02 05:20:58;;;;;;;;;;;;;;;;;;2097737;28;20362;-46
2022/06/02 05:22:01;;;;;;;;;;;;;;;;;;2097597;28;20012;-49
2022/06/02 05:23:02;;;;;;;;;;;;;;;;;;2097474;28;20411;-47
2022/06/02 05:24:03;;;;;;;;;;;;;;;;;;2097577;28;19920;-46
2022/06/02 05:25:04;;;;;;;;;;;;;;;;;;2097532;28;20330;-46
2022/06/02 05:26:05;;;;;;;;;;;;;;;;;;2097604;28;19974;-48
2022/06/02 05:27:06;;;;;;;;;;;;;;;;;;2097470;28;20007;-47
2022/06/02 05:28:07;;;;;;;;;;;;;;;;;;2101483;28;19920;-47
2022/06/02 05:29:08;;;;;;;;;;;;;;;;;;2105995;28;19951;-48
2022/06/02 05:30:09;;;;;;;;;;;;;;;;;;2105820;28;19924;-47
2022/06/02 05:31:10;;;;;;;;;;;;;;;;;;2106133;28;19920;-62
2022/06/02 05:32:10;;;;;;;;;;;;;;;;;;2105861;28;19952;-62
2022/06/02 05:33:11;;;;;;;;;;;;;;;;;;2105832;28;20014;-62
2022/06/02 05:34:12;;;;;;;;;;;;;;;;;;2105713;28;19920;-62
2022/06/02 05:35:13;;;;;;;;;;;;;;;;;;2105935;28;19995;-62
2022/06/02 05:36:14;;;;;;;;;;;;;;;;;;2105827;28;19926;-62
2022/06/02 05:37:15;;;;;;;;;;;;;;;;;;2105930;28;19920;-62
2022/06/02 05:38:16;;;;;;;;;;;;;;;;;;2105774;28;19927;-62
2022/06/02 05:39:17;;;;;;;;;;;;;;;;;;2105888;28;19920;-62
2022/06/02 05:40:18;;;;;;;;;;;;;;;;;;2105890;28;20034;-62
2022/06/02 05:41:19;;;;;;;;;;;;;;;;;;2105730;28;20385;-62
2022/06/02 05:42:20;;;;;;;;;;;;;;;;;;2106962;28;19926;-62
2022/06/02 05:43:20;;;;;;;;;;;;;;;;;;2107262;28;19973;-62
2022/06/02 05:44:21;;;;;;;;;;;;;;;;;;2107298;28;20391;-62
2022/06/02 05:45:22;;;;;;;;;;;;;;;;;;2107216;28;20323;-62
2022/06/02 05:46:23;;;;;;;;;;;;;;;;;;2107321;28;19920;-62
2022/06/02 05:47:25;;;;;;;;;;;;;;;;;;2107131;28;20292;-62
2022/06/02 05:48:26;;;;;;;;;;;;;;;;;;2107530;28;20002;-46
2022/06/02 05:49:27;;;;;;;;;;;;;;;;;;2101827;28;19920;-48
2022/06/02 05:50:29;;;;;;;;;;;;;;;;;;2098861;28;20027;-47
2022/06/02 05:51:29;;;;;;;;;;;;;;;;;;2098956;28;19927;-48
2022/06/02 05:52:31;;;;;;;;;;;;;;;;;;2098718;28;20430;-47
2022/06/02 05:53:31;;;;;;;;;;;;;;;;;;2098980;28;19966;-46
2022/06/02 05:54:32;;;;;;;;;;;;;;;;;;2098782;28;20278;-47
2022/06/02 05:55:33;;;;;;;;;;;;;;;;;;2099197;28;19955;-63
2022/06/02 05:56:34;;;;;;;;;;;;;;;;;;2098738;28;20007;-62
2022/06/02 05:57:35;;;;;;;;;;;;;;;;;;2098884;28;20001;-62
2022/06/02 05:58:39;;;;;;;;;;;;;;;;;;2098769;28;19956;-63
2022/06/02 05:59:40;;;;;;;;;;;;;;;;;;2098875;28;20011;-63
2022/06/02 06:00:41;;;;;;;;;;;;;;;;;;2098881;28;20003;-62
2022/06/02 06:01:43;;;;;;;;;;;;;;;;;;2098873;28;19920;-63
2022/06/02 06:02:44;;;;;;;;;;;;;;;;;;2098755;28;20436;-63
2022/06/02 06:03:44;;;;;;;;;;;;;;;;;;2098679;28;19927;-62
2022/06/02 06:04:45;;;;;;;;;;;;;;;;;;2098679;28;19967;-62
2022/06/02 06:05:46;;;;;;;;;;;;;;;;;;2098680;28;19921;-63
2022/06/02 06:06:47;;;;;;;;;;;;;;;;;;2098872;28;19927;-63
2022/06/02 06:07:48;;;;;;;;;;;;;;;;;;2098841;28;20011;-62
2022/06/02 06:08:49;;;;;;;;;;;;;;;;;;2098814;28;19932;-63
2022/06/02 06:09:50;;;;;;;;;;;;;;;;;;2098796;28;19994;-63
2022/06/02 06:10:51;;;;;;;;;;;;;;;;;;2098961;28;19925;-63
2022/06/02 06:11:51;;;;;;;;;;;;;;;;;;2098761;28;20047;-63
2022/06/02 06:12:52;;;;;;;;;;;;;;;;;;2098705;28;20328;-62
2022/06/02 06:13:53;;;;;;;;;;;;;;;;;;2098897;28;20320;-47
2022/06/02 06:14:54;;;;;;;;;;;;;;;;;;2098699;28;19952;-47
2022/06/02 06:15:55;;;;;;;;;;;;;;;;;;2098722;28;20412;-47
2022/06/02 06:16:56;;;;;;;;;;;;;;;;;;2098550;28;20168;-46
2022/06/02 06:17:57;;;;;;;;;;;;;;;;;;2098667;28;19925;-46
2022/06/02 06:18:58;;;;;;;;;;;;;;;;;;2103593;28;19956;-62
2022/06/02 06:20:02;;;;;;;;;;;;;;;;;;2106935;28;20375;-63
2022/06/02 06:21:02;;;;;;;;;;;;;;;;;;2106909;28;20014;-63
2022/06/02 06:22:03;;;;;;;;;;;;;;;;;;2107103;28;19962;-63
2022/06/02 06:23:04;;;;;;;;;;;;;;;;;;2107063;28;19920;-63
2022/06/02 06:24:05;;;;;;;;;;;;;;;;;;2106806;28;19927;-63
2022/06/02 06:25:06;;;;;;;;;;;;;;;;;;2107086;28;19963;-63
2022/06/02 06:26:07;;;;;;;;;;;;;;;;;;2107085;28;19971;-63
2022/06/02 06:27:08;;;;;;;;;;;;;;;;;;2107185;28;19920;-63
2022/06/02 06:28:10;;;;;;;;;;;;;;;;;;2107253;28;20024;-63
2022/06/02 06:29:11;;;;;;;;;;;;;;;;;;2106857;28;20377;-63
2022/06/02 06:30:16;;;;;;;;;;;;;;;;;;2107572;28;20396;-63
2022/06/02 06:31:17;;;;;;;;;;;;;;;;;;2106914;28;20402;-63
2022/06/02 06:32:19;;;;;;;;;;;;;;;;;;2106874;28;19924;-63
2022/06/02 06:33:20;;;;;;;;;;;;;;;;;;2107003;28;19920;-63
2022/06/02 06:34:21;;;;;;;;;;;;;;;;;;2106830;28;19952;-63
2022/06/02 06:35:22;;;;;;;;;;;;;;;;;;2106857;28;20387;-63
2022/06/02 06:36:23;;;;;;;;;;;;;;;;;;2107025;28;19967;-46
2022/06/02 06:37:24;;;;;;;;;;;;;;;;;;2106906;28;19920;-45
2022/06/02 06:38:25;;;;;;;;;;;;;;;;;;2106923;28;19928;-46
2022/06/02 06:39:26;;;;;;;;;;;;;;;;;;2106878;28;19942;-46
2022/06/02 06:40:27;;;;;;;;;;;;;;;;;;2106928;28;19920;-45
2022/06/02 06:41:28;;;;;;;;;;;;;;;;;;2106966;28;20007;-48
2022/06/02 06:42:29;;;;;;;;;;;;;;;;;;2106869;28;19946;-46
2022/06/02 06:43:30;;;;;;;;;;;;;;;;;;2106835;28;20381;-46
2022/06/02 06:44:31;;;;;;;;;;;;;;;;;;2106730;28;20019;-46
2022/06/02 06:45:33;;;;;;;;;;;;;;;;;;2106638;28;19920;-46
2022/06/02 06:46:36;;;;;;;;;;;;;;;;;;2106797;28;19977;-46
2022/06/02 06:47:37;;;;;;;;;;;;;;;;;;2106886;28;20014;-45
2022/06/02 06:48:38;;;;;;;;;;;;;;;;;;2106757;28;20003;-46
2022/06/02 06:49:39;;;;;;;;;;;;;;;;;;2107039;28;19953;-46
2022/06/02 06:50:39;;;;;;;;;;;;;;;;;;2106740;28;19920;-46
2022/06/02 06:51:40;;;;;;;;;;;;;;;;;;2106993;28;19993;-46
2022/06/02 06:52:41;;;;;;;;;;;;;;;;;;2106663;28;20367;-48
2022/06/02 06:53:44;;;;;;;;;;;;;;;;;;2106035;28;19920;-45
2022/06/02 06:54:45;;;;;;;;;;;;;;;;;;2106857;28;19974;-46
2022/06/02 06:55:46;;;;;;;;;;;;;;;;;;2107055;28;19959;-63
2022/06/02 06:56:49;;;;;;;;;;;;;;;;;;2106738;28;20365;-64
2022/06/02 06:57:50;;;;;;;;;;;;;;;;;;2106704;28;19923;-64
2022/06/02 06:58:51;;;;;;;;;;;;;;;;;;2106837;28;20530;-64
2022/06/02 06:59:52;;;;;;;;;;;;;;;;;;2106688;28;19970;-64
2022/06/02 07:00:53;;;;;;;;;;;;;;;;;;2106911;28;19919;-64
2022/06/02 07:01:54;;;;;;;;;;;;;;;;;;2106656;28;20168;-64
2022/06/02 07:02:55;;;;;;;;;;;;;;;;;;2106843;28;19927;-64